sensor_id;sensor_type;location;lat;lon;timestamp;temperature;humidity
26479;DHT22;14163;-26.142;27.992;2023-04-01T00:02:02;18.10;99.90
26479;DHT22;14163;-26.142;27.992;2023-04-01T02:04:19;13.00;99.90
26479;DHT22;14163;-26.142;27.992;2023-04-01T02:06:52;13.20;99.90
26479;DHT22;14163;-26.142;27.992;2023-04-01T02:09:22;13.80;99.90
26479;DHT22;14163;-26.142;27.992;2023-04-01T02:11:53;14.60;99.90
26479;DHT22;14163;-26.142;27.992;2023-04-01T02:14:24;15.30;99.90
26479;DHT22;14163;-26.142;27.992;2023-04-01T02:16:58;15.80;99.90
26479;DHT22;14163;-26.142;27.992;2023-04-01T02:19:36;16.30;99.90
26479;DHT22;14163;-26.142;27.992;2023-04-01T02:22:10;16.60;99.90
26479;DHT22;14163;-26.142;27.992;2023-04-01T02:24:42;16.90;99.90
26479;DHT22;14163;-26.142;27.992;2023-04-01T02:27:13;17.10;99.90
26479;DHT22;14163;-26.142;27.992;2023-04-01T02:29:43;17.10;99.90
26479;DHT22;14163;-26.142;27.992;2023-04-01T02:32:13;17.20;99.90
26479;DHT22;14163;-26.142;27.992;2023-04-01T02:34:45;17.30;99.90
26479;DHT22;14163;-26.142;27.992;2023-04-01T02:37:15;17.30;99.90
26479;DHT22;14163;-26.142;27.992;2023-04-01T02:39:46;17.30;99.90
26479;DHT22;14163;-26.142;27.992;2023-04-01T02:42:15;17.30;99.90
26479;DHT22;14163;-26.142;27.992;2023-04-01T02:44:44;17.30;99.90
26479;DHT22;14163;-26.142;27.992;2023-04-01T02:47:14;17.30;99.90
26479;DHT22;14163;-26.142;27.992;2023-04-01T02:49:48;17.40;99.90
26479;DHT22;14163;-26.142;27.992;2023-04-01T02:52:18;17.40;99.90
26479;DHT22;14163;-26.142;27.992;2023-04-01T02:54:48;17.50;99.90
26479;DHT22;14163;-26.142;27.992;2023-04-01T02:57:17;17.50;99.90
26479;DHT22;14163;-26.142;27.992;2023-04-01T02:59:48;17.40;99.90
26479;DHT22;14163;-26.142;27.992;2023-04-01T03:02:18;17.40;99.90
26479;DHT22;14163;-26.142;27.992;2023-04-01T03:04:50;17.40;99.90
26479;DHT22;14163;-26.142;27.992;2023-04-01T03:07:20;17.30;99.90
26479;DHT22;14163;-26.142;27.992;2023-04-01T03:09:50;17.20;99.90
26479;DHT22;14163;-26.142;27.992;2023-04-01T03:12:20;17.30;99.90
26479;DHT22;14163;-26.142;27.992;2023-04-01T03:14:50;17.40;99.90
26479;DHT22;14163;-26.142;27.992;2023-04-01T03:17:19;17.40;99.90
26479;DHT22;14163;-26.142;27.992;2023-04-01T03:19:52;17.40;99.90
26479;DHT22;14163;-26.142;27.992;2023-04-01T03:22:21;17.50;99.90
26479;DHT22;14163;-26.142;27.992;2023-04-01T03:24:51;17.50;99.90
26479;DHT22;14163;-26.142;27.992;2023-04-01T03:27:21;17.50;99.90
26479;DHT22;14163;-26.142;27.992;2023-04-01T03:29:51;17.50;99.90
26479;DHT22;14163;-26.142;27.992;2023-04-01T03:32:21;17.50;99.90
26479;DHT22;14163;-26.142;27.992;2023-04-01T03:34:54;17.50;99.90
26479;DHT22;14163;-26.142;27.992;2023-04-01T03:37:24;17.30;99.90
26479;DHT22;14163;-26.142;27.992;2023-04-01T03:39:54;17.30;99.90
26479;DHT22;14163;-26.142;27.992;2023-04-01T03:42:24;17.20;99.90
26479;DHT22;14163;-26.142;27.992;2023-04-01T03:44:54;17.10;99.90
26479;DHT22;14163;-26.142;27.992;2023-04-01T03:47:24;17.10;99.90
26479;DHT22;14163;-26.142;27.992;2023-04-01T03:49:57;17.20;99.90
26479;DHT22;14163;-26.142;27.992;2023-04-01T03:52:27;17.20;99.90
26479;DHT22;14163;-26.142;27.992;2023-04-01T03:54:57;17.10;99.90
26479;DHT22;14163;-26.142;27.992;2023-04-01T03:57:27;17.10;99.90
26479;DHT22;14163;-26.142;27.992;2023-04-01T03:59:57;17.10;99.90
26479;DHT22;14163;-26.142;27.992;2023-04-01T04:02:26;17.10;99.90
26479;DHT22;14163;-26.142;27.992;2023-04-01T04:04:59;17.10;99.90
26479;DHT22;14163;-26.142;27.992;2023-04-01T04:07:28;16.90;99.90
26479;DHT22;14163;-26.142;27.992;2023-04-01T04:09:58;16.80;99.90
26479;DHT22;14163;-26.142;27.992;2023-04-01T04:12:28;16.60;99.90
26479;DHT22;14163;-26.142;27.992;2023-04-01T04:14:58;16.50;99.90
26479;DHT22;14163;-26.142;27.992;2023-04-01T04:17:28;16.60;99.90
26479;DHT22;14163;-26.142;27.992;2023-04-01T04:20:00;16.80;99.90
26479;DHT22;14163;-26.142;27.992;2023-04-01T04:22:29;16.90;99.90
26479;DHT22;14163;-26.142;27.992;2023-04-01T04:24:59;17.10;99.90
26479;DHT22;14163;-26.142;27.992;2023-04-01T04:27:28;17.20;99.90
26479;DHT22;14163;-26.142;27.992;2023-04-01T04:29:57;17.30;99.90
26479;DHT22;14163;-26.142;27.992;2023-04-01T04:32:27;17.30;99.90
26479;DHT22;14163;-26.142;27.992;2023-04-01T04:34:58;17.30;99.90
26479;DHT22;14163;-26.142;27.992;2023-04-01T04:37:27;17.30;99.90
26479;DHT22;14163;-26.142;27.992;2023-04-01T04:39:57;17.30;99.90
26479;DHT22;14163;-26.142;27.992;2023-04-01T04:42:27;17.40;99.90
26479;DHT22;14163;-26.142;27.992;2023-04-01T04:44:56;17.40;99.90
26479;DHT22;14163;-26.142;27.992;2023-04-01T04:47:25;17.30;99.90
26479;DHT22;14163;-26.142;27.992;2023-04-01T04:49:54;17.30;99.90
26479;DHT22;14163;-26.142;27.992;2023-04-01T04:52:25;17.30;99.90
26479;DHT22;14163;-26.142;27.992;2023-04-01T04:54:54;17.30;99.90
26479;DHT22;14163;-26.142;27.992;2023-04-01T04:57:23;17.30;99.90
26479;DHT22;14163;-26.142;27.992;2023-04-01T04:59:53;17.30;99.90
26479;DHT22;14163;-26.142;27.992;2023-04-01T05:02:22;17.10;99.90
26479;DHT22;14163;-26.142;27.992;2023-04-01T05:04:51;17.00;99.90
26479;DHT22;14163;-26.142;27.992;2023-04-01T05:07:20;17.00;99.90
26479;DHT22;14163;-26.142;27.992;2023-04-01T05:09:52;17.00;99.90
26479;DHT22;14163;-26.142;27.992;2023-04-01T05:12:22;16.80;99.90
26479;DHT22;14163;-26.142;27.992;2023-04-01T05:14:51;16.80;99.90
26479;DHT22;14163;-26.142;27.992;2023-04-01T05:17:21;16.80;99.90
26479;DHT22;14163;-26.142;27.992;2023-04-01T05:19:50;17.00;99.90
26479;DHT22;14163;-26.142;27.992;2023-04-01T05:22:20;17.20;99.90
26479;DHT22;14163;-26.142;27.992;2023-04-01T05:24:52;17.50;99.90
26479;DHT22;14163;-26.142;27.992;2023-04-01T05:27:22;17.30;99.90
26479;DHT22;14163;-26.142;27.992;2023-04-01T05:29:52;17.00;99.90
26479;DHT22;14163;-26.142;27.992;2023-04-01T05:32:21;16.80;99.90
26479;DHT22;14163;-26.142;27.992;2023-04-01T05:34:51;16.70;99.90
26479;DHT22;14163;-26.142;27.992;2023-04-01T05:37:21;16.60;99.90
26479;DHT22;14163;-26.142;27.992;2023-04-01T05:39:54;16.50;99.90
26479;DHT22;14163;-26.142;27.992;2023-04-01T05:42:25;16.60;99.90
26479;DHT22;14163;-26.142;27.992;2023-04-01T05:44:55;16.60;99.90
26479;DHT22;14163;-26.142;27.992;2023-04-01T05:47:25;16.50;99.90
26479;DHT22;14163;-26.142;27.992;2023-04-01T05:49:54;16.40;99.90
26479;DHT22;14163;-26.142;27.992;2023-04-01T05:52:23;16.10;99.90
26479;DHT22;14163;-26.142;27.992;2023-04-01T05:54:54;16.10;99.90
26479;DHT22;14163;-26.142;27.992;2023-04-01T05:57:24;16.20;99.90
26479;DHT22;14163;-26.142;27.992;2023-04-01T05:59:53;16.30;99.90
26479;DHT22;14163;-26.142;27.992;2023-04-01T06:02:22;16.50;99.90
26479;DHT22;14163;-26.142;27.992;2023-04-01T06:05:02;16.70;99.90
26479;DHT22;14163;-26.142;27.992;2023-04-01T06:07:33;16.90;99.90
26479;DHT22;14163;-26.142;27.992;2023-04-01T06:10:12;17.00;99.90
26479;DHT22;14163;-26.142;27.992;2023-04-01T06:12:51;17.00;99.90
26479;DHT22;14163;-26.142;27.992;2023-04-01T06:15:29;16.90;99.90
26479;DHT22;14163;-26.142;27.992;2023-04-01T06:21:18;17.10;99.90
26479;DHT22;14163;-26.142;27.992;2023-04-01T06:23:59;17.10;99.90
26479;DHT22;14163;-26.142;27.992;2023-04-01T06:26:39;17.00;99.90
26479;DHT22;14163;-26.142;27.992;2023-04-01T06:29:41;17.30;99.90
26479;DHT22;14163;-26.142;27.992;2023-04-01T06:32:34;17.50;99.90
26479;DHT22;14163;-26.142;27.992;2023-04-01T06:35:22;17.50;99.90
26479;DHT22;14163;-26.142;27.992;2023-04-01T06:38:11;17.30;99.90
26479;DHT22;14163;-26.142;27.992;2023-04-01T06:41:24;17.10;99.90
26479;DHT22;14163;-26.142;27.992;2023-04-01T06:44:08;17.10;99.90
26479;DHT22;14163;-26.142;27.992;2023-04-01T06:46:45;17.30;99.90
26479;DHT22;14163;-26.142;27.992;2023-04-01T06:49:41;17.40;99.90
26479;DHT22;14163;-26.142;27.992;2023-04-01T06:52:21;17.30;99.90
26479;DHT22;14163;-26.142;27.992;2023-04-01T06:54:57;17.60;99.90
26479;DHT22;14163;-26.142;27.992;2023-04-01T06:57:32;17.70;99.90
26479;DHT22;14163;-26.142;27.992;2023-04-01T07:00:11;17.70;99.90
26479;DHT22;14163;-26.142;27.992;2023-04-01T07:02:45;17.60;99.90
26479;DHT22;14163;-26.142;27.992;2023-04-01T07:05:20;17.60;99.90
26479;DHT22;14163;-26.142;27.992;2023-04-01T07:07:52;17.80;99.90
26479;DHT22;14163;-26.142;27.992;2023-04-01T07:10:25;18.10;99.90
26479;DHT22;14163;-26.142;27.992;2023-04-01T07:13:00;18.30;99.90
26479;DHT22;14163;-26.142;27.992;2023-04-01T07:15:36;18.40;99.90
26479;DHT22;14163;-26.142;27.992;2023-04-01T07:18:10;18.50;99.90
26479;DHT22;14163;-26.142;27.992;2023-04-01T07:20:41;18.50;99.90
26479;DHT22;14163;-26.142;27.992;2023-04-01T07:23:19;18.60;99.90
26479;DHT22;14163;-26.142;27.992;2023-04-01T07:25:55;18.50;99.90
26479;DHT22;14163;-26.142;27.992;2023-04-01T07:28:30;18.80;99.90
26479;DHT22;14163;-26.142;27.992;2023-04-01T07:31:11;19.10;99.90
26479;DHT22;14163;-26.142;27.992;2023-04-01T07:33:50;19.30;99.90
26479;DHT22;14163;-26.142;27.992;2023-04-01T07:36:29;19.30;99.90
26479;DHT22;14163;-26.142;27.992;2023-04-01T07:39:08;18.80;99.90
26479;DHT22;14163;-26.142;27.992;2023-04-01T07:41:51;18.60;99.90
26479;DHT22;14163;-26.142;27.992;2023-04-01T07:44:28;18.80;99.90
26479;DHT22;14163;-26.142;27.992;2023-04-01T07:47:16;18.90;99.90
26479;DHT22;14163;-26.142;27.992;2023-04-01T07:49:54;19.00;99.90
26479;DHT22;14163;-26.142;27.992;2023-04-01T07:52:33;19.20;99.90
26479;DHT22;14163;-26.142;27.992;2023-04-01T07:55:12;19.20;99.90
26479;DHT22;14163;-26.142;27.992;2023-04-01T07:57:49;19.00;99.90
26479;DHT22;14163;-26.142;27.992;2023-04-01T08:00:24;18.70;99.90
26479;DHT22;14163;-26.142;27.992;2023-04-01T08:06:02;18.60;99.90
26479;DHT22;14163;-26.142;27.992;2023-04-01T10:16:33;21.30;99.90
26479;DHT22;14163;-26.142;27.992;2023-04-01T10:22:59;22.00;99.90
26479;DHT22;14163;-26.142;27.992;2023-04-01T10:29:00;23.20;99.90
26479;DHT22;14163;-26.142;27.992;2023-04-01T10:35:02;23.90;99.90
26479;DHT22;14163;-26.142;27.992;2023-04-01T10:37:59;24.50;99.90
26479;DHT22;14163;-26.142;27.992;2023-04-01T10:40:44;25.80;99.90
26479;DHT22;14163;-26.142;27.992;2023-04-01T10:43:52;26.50;99.90
26479;DHT22;14163;-26.142;27.992;2023-04-01T10:50:04;27.40;99.90
26479;DHT22;14163;-26.142;27.992;2023-04-01T10:59:18;28.40;99.90
26479;DHT22;14163;-26.142;27.992;2023-04-01T11:14:35;29.80;99.90
26479;DHT22;14163;-26.142;27.992;2023-04-01T11:23:54;32.40;99.90
26479;DHT22;14163;-26.142;27.992;2023-04-01T11:26:33;32.90;99.90
26479;DHT22;14163;-26.142;27.992;2023-04-01T11:32:28;33.60;95.40
26479;DHT22;14163;-26.142;27.992;2023-04-01T11:38:24;32.20;97.10
26479;DHT22;14163;-26.142;27.992;2023-04-01T11:41:01;31.20;96.70
26479;DHT22;14163;-26.142;27.992;2023-04-01T11:43:37;30.50;99.00
26479;DHT22;14163;-26.142;27.992;2023-04-01T11:46:11;29.90;97.50
26479;DHT22;14163;-26.142;27.992;2023-04-01T11:48:51;30.60;98.80
26479;DHT22;14163;-26.142;27.992;2023-04-01T11:54:38;31.70;96.90
26479;DHT22;14163;-26.142;27.992;2023-04-01T11:57:31;31.50;97.30
26479;DHT22;14163;-26.142;27.992;2023-04-01T12:03:18;31.50;96.60
26479;DHT22;14163;-26.142;27.992;2023-04-01T12:05:58;30.80;96.60
26479;DHT22;14163;-26.142;27.992;2023-04-01T12:08:37;30.20;97.70
26479;DHT22;14163;-26.142;27.992;2023-04-01T12:11:17;29.60;99.10
26479;DHT22;14163;-26.142;27.992;2023-04-01T12:13:53;28.70;99.50
26479;DHT22;14163;-26.142;27.992;2023-04-01T12:16:43;28.50;99.90
26479;DHT22;14163;-26.142;27.992;2023-04-01T12:19:23;28.30;99.90
26479;DHT22;14163;-26.142;27.992;2023-04-01T12:22:16;28.70;99.90
26479;DHT22;14163;-26.142;27.992;2023-04-01T12:24:51;29.10;99.90
26479;DHT22;14163;-26.142;27.992;2023-04-01T12:27:42;29.30;99.90
26479;DHT22;14163;-26.142;27.992;2023-04-01T12:30:42;29.20;98.50
26479;DHT22;14163;-26.142;27.992;2023-04-01T12:33:45;29.20;99.90
26479;DHT22;14163;-26.142;27.992;2023-04-01T12:36:30;29.50;99.40
26479;DHT22;14163;-26.142;27.992;2023-04-01T12:42:07;28.70;99.40
26479;DHT22;14163;-26.142;27.992;2023-04-01T12:44:58;28.70;99.20
26479;DHT22;14163;-26.142;27.992;2023-04-01T12:48:00;28.20;99.70
26479;DHT22;14163;-26.142;27.992;2023-04-01T12:50:50;28.00;99.90
26479;DHT22;14163;-26.142;27.992;2023-04-01T12:53:39;27.90;99.90
26479;DHT22;14163;-26.142;27.992;2023-04-01T12:56:19;27.90;99.90
26479;DHT22;14163;-26.142;27.992;2023-04-01T12:59:15;28.00;99.90
26479;DHT22;14163;-26.142;27.992;2023-04-01T13:02:02;28.10;99.90
26479;DHT22;14163;-26.142;27.992;2023-04-01T13:11:02;28.20;99.90
26479;DHT22;14163;-26.142;27.992;2023-04-01T13:13:58;28.10;99.90
26479;DHT22;14163;-26.142;27.992;2023-04-01T13:16:37;27.90;99.90
26479;DHT22;14163;-26.142;27.992;2023-04-01T13:19:12;28.10;99.90
26479;DHT22;14163;-26.142;27.992;2023-04-01T13:21:51;28.00;99.90
26479;DHT22;14163;-26.142;27.992;2023-04-01T13:24:40;27.80;99.90
26479;DHT22;14163;-26.142;27.992;2023-04-01T13:27:17;27.70;99.90
26479;DHT22;14163;-26.142;27.992;2023-04-01T13:30:02;27.70;99.90
26479;DHT22;14163;-26.142;27.992;2023-04-01T13:32:37;27.40;99.90
26479;DHT22;14163;-26.142;27.992;2023-04-01T13:35:24;27.40;99.90
26479;DHT22;14163;-26.142;27.992;2023-04-01T13:38:08;27.30;99.90
26479;DHT22;14163;-26.142;27.992;2023-04-01T13:40:49;27.00;99.90
26479;DHT22;14163;-26.142;27.992;2023-04-01T13:43:23;27.10;99.90
26479;DHT22;14163;-26.142;27.992;2023-04-01T13:46:32;27.50;99.90
26479;DHT22;14163;-26.142;27.992;2023-04-01T13:49:28;27.20;99.90
26479;DHT22;14163;-26.142;27.992;2023-04-01T13:52:21;27.40;99.90
26479;DHT22;14163;-26.142;27.992;2023-04-01T13:55:14;27.50;99.90
26479;DHT22;14163;-26.142;27.992;2023-04-01T13:58:03;27.60;99.90
26479;DHT22;14163;-26.142;27.992;2023-04-01T14:00:42;27.50;99.90
26479;DHT22;14163;-26.142;27.992;2023-04-01T14:03:28;27.60;99.90
26479;DHT22;14163;-26.142;27.992;2023-04-01T14:06:18;27.50;99.90
26479;DHT22;14163;-26.142;27.992;2023-04-01T14:09:11;27.00;99.90
26479;DHT22;14163;-26.142;27.992;2023-04-01T14:11:52;26.60;99.90
26479;DHT22;14163;-26.142;27.992;2023-04-01T14:14:35;27.00;99.90
26479;DHT22;14163;-26.142;27.992;2023-04-01T14:17:19;27.20;99.90
26479;DHT22;14163;-26.142;27.992;2023-04-01T14:20:23;27.40;99.90
26479;DHT22;14163;-26.142;27.992;2023-04-01T14:23:23;27.30;99.90
26479;DHT22;14163;-26.142;27.992;2023-04-01T14:26:29;27.10;99.90
26479;DHT22;14163;-26.142;27.992;2023-04-01T14:29:16;27.10;99.90
26479;DHT22;14163;-26.142;27.992;2023-04-01T14:32:00;27.30;99.90
26479;DHT22;14163;-26.142;27.992;2023-04-01T14:34:46;27.40;99.90
26479;DHT22;14163;-26.142;27.992;2023-04-01T14:37:35;27.10;99.90
26479;DHT22;14163;-26.142;27.992;2023-04-01T14:40:27;27.20;99.90
26479;DHT22;14163;-26.142;27.992;2023-04-01T14:43:10;27.20;99.90
26479;DHT22;14163;-26.142;27.992;2023-04-01T14:46:06;27.20;99.90
26479;DHT22;14163;-26.142;27.992;2023-04-01T14:48:39;27.00;99.90
26479;DHT22;14163;-26.142;27.992;2023-04-01T14:51:20;26.90;99.90
26479;DHT22;14163;-26.142;27.992;2023-04-01T14:54:01;26.50;99.90
26479;DHT22;14163;-26.142;27.992;2023-04-01T14:56:40;26.50;99.90
26479;DHT22;14163;-26.142;27.992;2023-04-01T14:59:13;26.60;99.90
26479;DHT22;14163;-26.142;27.992;2023-04-01T15:01:50;26.60;99.90
26479;DHT22;14163;-26.142;27.992;2023-04-01T15:04:43;26.80;99.90
26479;DHT22;14163;-26.142;27.992;2023-04-01T15:10:39;27.00;99.90
26479;DHT22;14163;-26.142;27.992;2023-04-01T15:13:15;27.10;99.90
26479;DHT22;14163;-26.142;27.992;2023-04-01T15:16:01;27.00;99.90
26479;DHT22;14163;-26.142;27.992;2023-04-01T15:18:45;26.80;99.90
26479;DHT22;14163;-26.142;27.992;2023-04-01T15:21:41;26.50;99.90
26479;DHT22;14163;-26.142;27.992;2023-04-01T15:24:19;26.50;99.90
26479;DHT22;14163;-26.142;27.992;2023-04-01T15:27:10;26.40;99.90
26479;DHT22;14163;-26.142;27.992;2023-04-01T15:29:53;26.50;99.90
26479;DHT22;14163;-26.142;27.992;2023-04-01T15:32:38;26.50;99.90
26479;DHT22;14163;-26.142;27.992;2023-04-01T15:35:17;26.60;99.90
26479;DHT22;14163;-26.142;27.992;2023-04-01T15:37:52;26.60;99.90
26479;DHT22;14163;-26.142;27.992;2023-04-01T15:40:27;26.50;99.90
26479;DHT22;14163;-26.142;27.992;2023-04-01T15:43:09;26.30;99.90
26479;DHT22;14163;-26.142;27.992;2023-04-01T15:45:51;26.30;99.90
26479;DHT22;14163;-26.142;27.992;2023-04-01T15:48:45;26.30;99.90
26479;DHT22;14163;-26.142;27.992;2023-04-01T15:51:24;26.20;99.90
26479;DHT22;14163;-26.142;27.992;2023-04-01T15:57:24;26.20;99.90
26479;DHT22;14163;-26.142;27.992;2023-04-01T16:00:11;26.30;99.90
26479;DHT22;14163;-26.142;27.992;2023-04-01T16:02:48;26.00;99.90
26479;DHT22;14163;-26.142;27.992;2023-04-01T16:27:04;22.30;99.90
26479;DHT22;14163;-26.142;27.992;2023-04-01T16:29:41;22.10;99.90
26479;DHT22;14163;-26.142;27.992;2023-04-01T16:32:23;22.40;99.90
26479;DHT22;14163;-26.142;27.992;2023-04-01T16:35:13;22.60;99.90
26479;DHT22;14163;-26.142;27.992;2023-04-01T16:37:49;23.10;99.90
26479;DHT22;14163;-26.142;27.992;2023-04-01T16:40:25;23.50;99.90
26479;DHT22;14163;-26.142;27.992;2023-04-01T16:43:13;24.00;99.90
26479;DHT22;14163;-26.142;27.992;2023-04-01T16:45:53;24.70;99.90
26479;DHT22;14163;-26.142;27.992;2023-04-01T16:48:51;25.10;99.90
26479;DHT22;14163;-26.142;27.992;2023-04-01T16:51:24;25.30;99.90
26479;DHT22;14163;-26.142;27.992;2023-04-01T16:54:04;25.40;99.90
26479;DHT22;14163;-26.142;27.992;2023-04-01T16:56:40;25.50;99.90
26479;DHT22;14163;-26.142;27.992;2023-04-01T16:59:20;25.50;99.90
26479;DHT22;14163;-26.142;27.992;2023-04-01T17:01:53;25.60;99.90
26479;DHT22;14163;-26.142;27.992;2023-04-01T17:04:33;25.70;99.90
26479;DHT22;14163;-26.142;27.992;2023-04-01T17:07:20;25.80;99.90
26479;DHT22;14163;-26.142;27.992;2023-04-01T17:10:03;25.80;99.90
26479;DHT22;14163;-26.142;27.992;2023-04-01T17:12:38;25.80;99.90
26479;DHT22;14163;-26.142;27.992;2023-04-01T17:15:20;25.60;99.90
26479;DHT22;14163;-26.142;27.992;2023-04-01T17:18:01;25.40;99.90
26479;DHT22;14163;-26.142;27.992;2023-04-01T17:20:42;25.50;99.90
26479;DHT22;14163;-26.142;27.992;2023-04-01T17:23:21;25.60;99.90
26479;DHT22;14163;-26.142;27.992;2023-04-01T17:26:13;25.70;99.90
26479;DHT22;14163;-26.142;27.992;2023-04-01T17:28:50;25.80;99.90
26479;DHT22;14163;-26.142;27.992;2023-04-01T17:31:37;25.70;99.90
26479;DHT22;14163;-26.142;27.992;2023-04-01T17:34:26;25.70;99.90
26479;DHT22;14163;-26.142;27.992;2023-04-01T17:37:12;25.60;99.90
26479;DHT22;14163;-26.142;27.992;2023-04-01T17:39:58;25.60;99.90
26479;DHT22;14163;-26.142;27.992;2023-04-01T17:42:38;25.50;99.90
26479;DHT22;14163;-26.142;27.992;2023-04-01T17:45:17;25.40;99.90
26479;DHT22;14163;-26.142;27.992;2023-04-01T17:48:05;25.30;99.90
26479;DHT22;14163;-26.142;27.992;2023-04-01T17:50:48;25.40;99.90
26479;DHT22;14163;-26.142;27.992;2023-04-01T17:53:27;25.30;99.90
26479;DHT22;14163;-26.142;27.992;2023-04-01T17:56:12;25.30;99.90
26479;DHT22;14163;-26.142;27.992;2023-04-01T17:58:46;25.30;99.90
26479;DHT22;14163;-26.142;27.992;2023-04-01T18:01:40;25.20;99.90
26479;DHT22;14163;-26.142;27.992;2023-04-01T18:04:28;25.10;99.90
26479;DHT22;14163;-26.142;27.992;2023-04-01T18:08:31;25.00;99.90
26479;DHT22;14163;-26.142;27.992;2023-04-01T18:11:09;25.00;99.90
26479;DHT22;14163;-26.142;27.992;2023-04-01T18:17:21;25.00;99.90
26479;DHT22;14163;-26.142;27.992;2023-04-01T18:22:59;24.80;99.90
26479;DHT22;14163;-26.142;27.992;2023-04-01T18:25:34;24.60;99.90
26479;DHT22;14163;-26.142;27.992;2023-04-01T18:28:20;24.50;99.90
26479;DHT22;14163;-26.142;27.992;2023-04-01T18:30:55;24.60;99.90
26479;DHT22;14163;-26.142;27.992;2023-04-01T18:33:31;24.70;99.90
26479;DHT22;14163;-26.142;27.992;2023-04-01T18:36:10;24.70;99.90
26479;DHT22;14163;-26.142;27.992;2023-04-01T18:38:49;24.60;99.90
26479;DHT22;14163;-26.142;27.992;2023-04-01T18:41:32;24.50;99.90
26479;DHT22;14163;-26.142;27.992;2023-04-01T18:44:25;24.50;99.90
26479;DHT22;14163;-26.142;27.992;2023-04-01T18:47:04;24.50;99.90
26479;DHT22;14163;-26.142;27.992;2023-04-01T18:49:41;24.50;99.90
26479;DHT22;14163;-26.142;27.992;2023-04-01T18:52:17;24.50;99.90
26479;DHT22;14163;-26.142;27.992;2023-04-01T18:55:14;24.50;99.90
26479;DHT22;14163;-26.142;27.992;2023-04-01T18:57:47;24.40;99.90
26479;DHT22;14163;-26.142;27.992;2023-04-01T19:00:22;24.30;99.90
26479;DHT22;14163;-26.142;27.992;2023-04-01T19:02:58;24.20;99.90
26479;DHT22;14163;-26.142;27.992;2023-04-01T19:05:40;24.10;99.90
26479;DHT22;14163;-26.142;27.992;2023-04-01T19:08:22;24.00;99.90
26479;DHT22;14163;-26.142;27.992;2023-04-01T19:11:07;24.00;99.90
26479;DHT22;14163;-26.142;27.992;2023-04-01T19:13:57;24.10;99.90
26479;DHT22;14163;-26.142;27.992;2023-04-01T19:16:43;24.10;99.90
26479;DHT22;14163;-26.142;27.992;2023-04-01T19:19:29;24.10;99.90
26479;DHT22;14163;-26.142;27.992;2023-04-01T19:22:19;24.10;99.90
26479;DHT22;14163;-26.142;27.992;2023-04-01T19:25:09;24.10;99.90
26479;DHT22;14163;-26.142;27.992;2023-04-01T19:27:48;24.10;99.90
26479;DHT22;14163;-26.142;27.992;2023-04-01T19:30:31;24.10;99.90
26479;DHT22;14163;-26.142;27.992;2023-04-01T19:33:13;24.10;99.90
26479;DHT22;14163;-26.142;27.992;2023-04-01T19:35:49;24.10;99.90
26479;DHT22;14163;-26.142;27.992;2023-04-01T19:38:28;24.00;99.90
26479;DHT22;14163;-26.142;27.992;2023-04-01T19:41:09;23.90;99.90
26479;DHT22;14163;-26.142;27.992;2023-04-01T19:43:53;23.90;99.90
26479;DHT22;14163;-26.142;27.992;2023-04-01T19:46:30;24.00;99.90
26479;DHT22;14163;-26.142;27.992;2023-04-01T19:49:21;23.90;99.90
26479;DHT22;14163;-26.142;27.992;2023-04-01T19:51:59;23.90;99.90
26479;DHT22;14163;-26.142;27.992;2023-04-01T19:54:37;23.80;99.90
26479;DHT22;14163;-26.142;27.992;2023-04-01T19:57:17;23.70;99.90
26479;DHT22;14163;-26.142;27.992;2023-04-01T19:59:53;23.70;99.90
26479;DHT22;14163;-26.142;27.992;2023-04-01T20:05:45;23.60;99.90
26479;DHT22;14163;-26.142;27.992;2023-04-01T20:08:27;23.60;99.90
26479;DHT22;14163;-26.142;27.992;2023-04-01T20:14:12;23.60;99.90
26479;DHT22;14163;-26.142;27.992;2023-04-01T20:17:07;23.60;99.90
26479;DHT22;14163;-26.142;27.992;2023-04-01T20:19:43;23.60;99.90
26479;DHT22;14163;-26.142;27.992;2023-04-01T20:22:27;23.40;99.90
26479;DHT22;14163;-26.142;27.992;2023-04-01T20:24:59;23.40;99.90
26479;DHT22;14163;-26.142;27.992;2023-04-01T20:27:33;23.40;99.90
26479;DHT22;14163;-26.142;27.992;2023-04-01T20:30:32;23.30;99.90
26479;DHT22;14163;-26.142;27.992;2023-04-01T20:33:20;23.30;99.90
26479;DHT22;14163;-26.142;27.992;2023-04-01T20:36:05;23.30;99.90
26479;DHT22;14163;-26.142;27.992;2023-04-01T20:39:03;23.30;99.90
26479;DHT22;14163;-26.142;27.992;2023-04-01T20:41:40;23.30;99.90
26479;DHT22;14163;-26.142;27.992;2023-04-01T20:44:14;23.30;99.90
26479;DHT22;14163;-26.142;27.992;2023-04-01T20:46:53;23.30;99.90
26479;DHT22;14163;-26.142;27.992;2023-04-01T20:49:33;23.30;99.90
26479;DHT22;14163;-26.142;27.992;2023-04-01T20:52:19;23.30;99.90
26479;DHT22;14163;-26.142;27.992;2023-04-01T20:58:02;23.00;99.90
26479;DHT22;14163;-26.142;27.992;2023-04-01T21:00:38;23.00;99.90
26479;DHT22;14163;-26.142;27.992;2023-04-01T21:03:20;23.00;99.90
26479;DHT22;14163;-26.142;27.992;2023-04-01T21:06:21;23.00;99.90
26479;DHT22;14163;-26.142;27.992;2023-04-01T21:09:18;23.10;99.90
26479;DHT22;14163;-26.142;27.992;2023-04-01T21:11:58;23.10;99.90
26479;DHT22;14163;-26.142;27.992;2023-04-01T21:14:47;23.10;99.90
26479;DHT22;14163;-26.142;27.992;2023-04-01T21:17:28;23.10;99.90
26479;DHT22;14163;-26.142;27.992;2023-04-01T21:20:13;23.00;99.90
26479;DHT22;14163;-26.142;27.992;2023-04-01T21:23:02;23.00;99.90
26479;DHT22;14163;-26.142;27.992;2023-04-01T21:25:55;23.00;99.90
26479;DHT22;14163;-26.142;27.992;2023-04-01T21:28:49;23.10;99.90
26479;DHT22;14163;-26.142;27.992;2023-04-01T21:31:33;23.10;99.90
26479;DHT22;14163;-26.142;27.992;2023-04-01T21:37:01;23.00;99.90
26479;DHT22;14163;-26.142;27.992;2023-04-01T21:39:47;22.90;99.90
26479;DHT22;14163;-26.142;27.992;2023-04-01T21:42:32;22.90;99.90
26479;DHT22;14163;-26.142;27.992;2023-04-01T21:45:27;22.90;99.90
26479;DHT22;14163;-26.142;27.992;2023-04-01T21:48:28;22.90;99.90
26479;DHT22;14163;-26.142;27.992;2023-04-01T21:51:21;22.90;99.90
26479;DHT22;14163;-26.142;27.992;2023-04-01T22:00:18;22.90;99.90
26479;DHT22;14163;-26.142;27.992;2023-04-01T22:06:16;22.70;99.90
26479;DHT22;14163;-26.142;27.992;2023-04-01T22:08:55;22.70;99.90
26479;DHT22;14163;-26.142;27.992;2023-04-01T22:11:33;22.60;99.90
26479;DHT22;14163;-26.142;27.992;2023-04-01T22:14:08;22.60;99.90
26479;DHT22;14163;-26.142;27.992;2023-04-01T22:16:48;22.60;99.90
26479;DHT22;14163;-26.142;27.992;2023-04-01T22:19:23;22.60;99.90
26479;DHT22;14163;-26.142;27.992;2023-04-01T22:21:58;22.60;99.90
26479;DHT22;14163;-26.142;27.992;2023-04-01T22:24:43;22.70;99.90
26479;DHT22;14163;-26.142;27.992;2023-04-01T22:27:24;22.60;99.90
26479;DHT22;14163;-26.142;27.992;2023-04-01T22:30:03;22.60;99.90
26479;DHT22;14163;-26.142;27.992;2023-04-01T22:32:41;22.60;99.90